Time;durP1;ratioP1;P1;durP2;ratioP2;P2;SDS_P1;SDS_P2;PMS_P1;PMS_P2;Temp;Humidity;BMP_temperature;BMP_pressure;BME280_temperature;BME280_humidity;BME280_pressure;Samples;Min_cycle;Max_cycle;Signal;HPM_P1;HPM_P2
2022/01/06 00:01:47;;;;;;;2.67;1.67;;;5.60;99.90;;;;;;5093556;28;20246;-57
2022/01/06 00:04:13;;;;;;;3.33;2.17;;;5.60;99.90;;;;;;5093293;28;20194;-58
2022/01/06 00:06:41;;;;;;;3.47;2.20;;;5.60;99.90;;;;;;5093993;28;20194;-57
2022/01/06 00:09:08;;;;;;;2.53;1.87;;;5.60;99.90;;;;;;5093311;28;20195;-60
2022/01/06 00:11:34;;;;;;;3.23;1.80;;;5.60;99.90;;;;;;5093872;28;20248;-56
2022/01/06 00:14:08;;;;;;;2.23;1.53;;;5.60;99.90;;;;;;5093651;28;20193;-63
2022/01/06 00:24:15;;;;;;;2.60;1.03;;;5.60;99.90;;;;;;5093322;28;20207;-57
2022/01/06 00:26:41;;;;;;;3.73;1.60;;;5.60;99.90;;;;;;5093576;28;20211;-62
2022/01/06 00:29:07;;;;;;;2.43;1.00;;;5.60;99.90;;;;;;5093239;28;20171;-59
2022/01/06 00:31:34;;;;;;;2.37;1.40;;;5.60;99.90;;;;;;5093714;28;20184;-56
2022/01/06 00:34:00;;;;;;;2.17;1.20;;;5.50;99.90;;;;;;5091384;28;20226;-58
2022/01/06 00:36:27;;;;;;;1.73;1.20;;;5.50;99.90;;;;;;5093164;28;20645;-61
2022/01/06 00:38:53;;;;;;;2.57;1.70;;;5.50;99.90;;;;;;5093480;28;20270;-55
2022/01/06 00:41:18;;;;;;;4.63;1.43;;;5.50;99.90;;;;;;5093345;28;20313;-58
2022/01/06 00:43:44;;;;;;;2.30;1.07;;;5.50;99.90;;;;;;5093097;28;20249;-58
2022/01/06 00:46:10;;;;;;;2.40;1.13;;;5.50;99.90;;;;;;5092993;28;20279;-56
2022/01/06 00:48:36;;;;;;;1.77;1.17;;;5.50;99.90;;;;;;5093397;28;20197;-59
2022/01/06 00:51:02;;;;;;;4.07;1.50;;;5.50;99.90;;;;;;5092389;28;20540;-62
2022/01/06 00:53:28;;;;;;;2.30;1.23;;;5.40;99.90;;;;;;5092875;28;20223;-56
2022/01/06 00:55:53;;;;;;;1.60;1.17;;;5.40;99.90;;;;;;5092946;28;20178;-56
2022/01/06 00:58:19;;;;;;;1.80;0.80;;;5.30;99.90;;;;;;5092658;28;20586;-58
2022/01/06 01:00:45;;;;;;;1.23;0.80;;;5.30;99.90;;;;;;5092832;28;20190;-56
2022/01/06 01:03:15;;;;;;;1.00;0.70;;;5.30;99.90;;;;;;5092631;28;20221;-56
2022/01/06 01:05:42;;;;;;;1.20;0.70;;;5.20;99.90;;;;;;5092884;28;20199;-56
2022/01/06 01:08:09;;;;;;;0.87;0.60;;;5.20;99.90;;;;;;5092833;28;20170;-57
2022/01/06 01:10:35;;;;;;;0.40;0.37;;;5.20;99.90;;;;;;5092959;28;20175;-57
2022/01/06 01:13:01;;;;;;;1.30;0.70;;;5.20;99.90;;;;;;5092535;28;20231;-55
2022/01/06 01:15:28;;;;;;;1.00;0.50;;;5.20;99.90;;;;;;5092808;28;20173;-55
2022/01/06 01:17:54;;;;;;;0.67;0.30;;;5.10;99.90;;;;;;5091447;28;20181;-57
2022/01/06 01:20:21;;;;;;;1.50;0.60;;;5.10;99.90;;;;;;5092439;28;20192;-58
2022/01/06 01:22:47;;;;;;;1.10;0.60;;;5.00;99.90;;;;;;5092541;28;20264;-58
2022/01/06 01:25:14;;;;;;;2.10;0.57;;;5.10;99.90;;;;;;5092410;28;20259;-62
2022/01/06 01:27:43;;;;;;;0.80;0.50;;;5.10;99.90;;;;;;5092731;28;20220;-59
2022/01/06 01:30:13;;;;;;;2.50;0.60;;;5.00;99.90;;;;;;5092317;28;20243;-59
2022/01/06 01:32:40;;;;;;;1.40;0.60;;;5.10;99.90;;;;;;5090788;28;20203;-58
2022/01/06 01:35:09;;;;;;;0.53;0.43;;;5.10;99.90;;;;;;5092396;28;20159;-57
2022/01/06 01:37:36;;;;;;;0.70;0.47;;;5.10;99.90;;;;;;5091223;28;20277;-58
2022/01/06 01:40:05;;;;;;;0.90;0.57;;;5.10;99.90;;;;;;5092173;28;20267;-56
2022/01/06 01:42:31;;;;;;;1.00;0.60;;;5.10;99.90;;;;;;5092175;28;20344;-57
2022/01/06 01:44:57;;;;;;;0.87;0.40;;;5.10;99.90;;;;;;5092200;28;20274;-56
2022/01/06 01:50:10;;;;;;;2.33;0.50;;;5.10;99.90;;;;;;5092481;28;20625;-58
2022/01/06 01:52:40;;;;;;;0.93;0.60;;;5.10;99.90;;;;;;5092389;28;20178;-61
2022/01/06 01:55:06;;;;;;;2.67;0.80;;;5.10;99.90;;;;;;5092005;28;20212;-58
2022/01/06 01:57:32;;;;;;;0.97;0.50;;;5.10;99.90;;;;;;5092402;28;20230;-56
2022/01/06 01:59:58;;;;;;;0.70;0.60;;;5.00;99.90;;;;;;5091815;28;20627;-56
2022/01/06 02:02:24;;;;;;;1.73;0.77;;;5.00;99.90;;;;;;5091857;28;20294;-60
2022/01/06 02:04:52;;;;;;;2.00;1.10;;;5.10;99.90;;;;;;5094787;28;20288;-58
2022/01/06 02:07:19;;;;;;;1.80;1.17;;;5.10;99.90;;;;;;5095934;28;20178;-58
2022/01/06 02:09:44;;;;;;;2.90;1.37;;;5.00;99.90;;;;;;5096271;28;20209;-59
2022/01/06 02:12:20;;;;;;;1.93;1.40;;;5.00;99.90;;;;;;5077918;28;20621;-59
2022/01/06 02:14:46;;;;;;;1.73;1.10;;;5.00;99.90;;;;;;5096138;28;20170;-57
2022/01/06 02:17:12;;;;;;;3.30;1.60;;;5.00;99.90;;;;;;5095795;28;20170;-57
2022/01/06 02:19:37;;;;;;;2.40;1.50;;;4.90;99.90;;;;;;5094675;28;20630;-58
2022/01/06 02:22:03;;;;;;;3.13;1.83;;;4.90;99.90;;;;;;5095842;28;20214;-57
2022/01/06 02:24:29;;;;;;;3.23;1.67;;;4.80;99.90;;;;;;5096364;28;20227;-55
2022/01/06 02:26:54;;;;;;;3.13;1.87;;;4.80;99.90;;;;;;5095837;28;20181;-56
2022/01/06 02:29:20;;;;;;;3.77;2.13;;;4.70;99.90;;;;;;5094426;28;20540;-58
2022/01/06 02:31:46;;;;;;;3.20;2.10;;;4.70;99.90;;;;;;5095671;28;20195;-58
2022/01/06 02:34:12;;;;;;;3.67;2.03;;;4.70;99.90;;;;;;5095419;28;20367;-58
2022/01/06 02:36:38;;;;;;;4.83;2.20;;;4.60;99.90;;;;;;5095964;28;20260;-58
2022/01/06 02:39:04;;;;;;;4.23;2.13;;;4.60;99.90;;;;;;5095704;28;20186;-57
2022/01/06 02:41:32;;;;;;;3.83;2.00;;;4.60;99.90;;;;;;5095589;28;20627;-58
2022/01/06 02:43:57;;;;;;;3.57;2.00;;;4.50;99.90;;;;;;5095682;28;20183;-56
2022/01/06 02:46:23;;;;;;;2.57;2.00;;;4.50;99.90;;;;;;5095392;28;20214;-58
2022/01/06 02:48:49;;;;;;;4.60;1.90;;;4.50;99.90;;;;;;5095492;28;20269;-59
2022/01/06 02:51:14;;;;;;;4.30;2.13;;;4.50;99.90;;;;;;5095001;28;20234;-58
2022/01/06 02:53:40;;;;;;;3.03;1.90;;;4.50;99.90;;;;;;5095376;28;20211;-56
2022/01/06 02:56:06;;;;;;;4.27;1.90;;;4.50;99.90;;;;;;5095504;28;20188;-58
2022/01/06 02:58:32;;;;;;;3.13;1.87;;;4.50;99.90;;;;;;5095588;28;20515;-58
2022/01/06 03:00:57;;;;;;;4.10;1.97;;;4.40;99.90;;;;;;5095101;28;20186;-58
2022/01/06 03:03:23;;;;;;;3.33;1.70;;;4.40;99.90;;;;;;5094901;28;20276;-56
2022/01/06 03:05:49;;;;;;;4.10;1.90;;;4.40;99.90;;;;;;5095221;28;20178;-58
2022/01/06 03:08:15;;;;;;;4.17;2.03;;;4.30;99.90;;;;;;5093273;28;20592;-57
2022/01/06 03:10:43;;;;;;;4.10;2.30;;;4.30;99.90;;;;;;5093917;28;20213;-55
2022/01/06 03:13:09;;;;;;;3.90;2.20;;;4.30;99.90;;;;;;5094718;28;20204;-55
2022/01/06 03:15:35;;;;;;;7.10;2.97;;;4.30;99.90;;;;;;5094757;28;20185;-56
2022/01/06 03:18:01;;;;;;;4.00;2.60;;;4.30;99.90;;;;;;5095106;28;20184;-56
2022/01/06 03:20:29;;;;;;;4.83;2.40;;;4.30;99.90;;;;;;5094807;28;20174;-55
2022/01/06 03:22:55;;;;;;;3.70;2.53;;;4.30;99.90;;;;;;5094921;28;20261;-56
2022/01/06 03:25:21;;;;;;;3.73;2.17;;;4.20;99.90;;;;;;5094729;28;20231;-56
2022/01/06 03:27:47;;;;;;;3.93;2.30;;;4.20;99.90;;;;;;5094532;28;20957;-54
2022/01/06 03:30:18;;;;;;;12.13;2.87;;;4.30;99.90;;;;;;5094449;28;20181;-56
2022/01/06 03:32:44;;;;;;;7.70;2.80;;;4.20;99.90;;;;;;5094496;28;20254;-54
2022/01/06 03:35:12;;;;;;;4.67;2.43;;;4.20;99.90;;;;;;5094190;28;20223;-54
2022/01/06 03:37:39;;;;;;;4.77;2.63;;;4.20;99.90;;;;;;5094723;28;20182;-57
2022/01/06 03:40:06;;;;;;;5.60;3.00;;;4.20;99.90;;;;;;5094432;28;20173;-64
2022/01/06 03:42:34;;;;;;;5.63;2.40;;;4.20;99.90;;;;;;5094036;28;20214;-54
2022/01/06 03:45:00;;;;;;;7.53;2.40;;;4.30;99.90;;;;;;5094514;28;20193;-52
2022/01/06 03:47:26;;;;;;;3.90;2.40;;;4.20;99.90;;;;;;5094038;28;20181;-56
2022/01/06 03:49:52;;;;;;;4.30;2.23;;;4.20;99.90;;;;;;5094057;28;20189;-54
2022/01/06 03:52:17;;;;;;;4.77;2.03;;;4.20;99.90;;;;;;5093813;28;20184;-54
2022/01/06 03:54:43;;;;;;;4.17;2.13;;;4.20;99.90;;;;;;5092929;28;20654;-54
2022/01/06 03:57:09;;;;;;;3.47;1.87;;;4.30;99.90;;;;;;5093665;28;20182;-56
2022/01/06 03:59:35;;;;;;;3.47;2.10;;;4.20;99.90;;;;;;5094201;28;20188;-56
2022/01/06 04:02:02;;;;;;;2.90;1.80;;;4.20;99.90;;;;;;5093748;28;20228;-54
2022/01/06 04:04:28;;;;;;;2.80;1.67;;;4.20;99.90;;;;;;5093318;28;20696;-55
2022/01/06 04:06:54;;;;;;;3.40;2.00;;;4.20;99.90;;;;;;5094015;28;20271;-55
2022/01/06 04:09:19;;;;;;;4.27;2.23;;;4.30;99.90;;;;;;5093336;28;20216;-56
2022/01/06 04:11:45;;;;;;;4.23;2.47;;;4.30;99.90;;;;;;5091782;28;20175;-56
2022/01/06 04:14:11;;;;;;;3.80;2.50;;;4.30;99.90;;;;;;5093268;28;20515;-57
2022/01/06 04:16:39;;;;;;;2.90;2.23;;;4.30;99.90;;;;;;5092125;28;20187;-58
2022/01/06 04:19:05;;;;;;;4.43;2.60;;;4.30;99.90;;;;;;5093606;28;20184;-58
2022/01/06 04:21:31;;;;;;;4.83;2.53;;;4.40;99.90;;;;;;5093087;28;20192;-56
2022/01/06 04:23:57;;;;;;;3.90;2.40;;;4.40;99.90;;;;;;5093364;28;20185;-57
2022/01/06 04:26:22;;;;;;;4.67;2.60;;;4.40;99.90;;;;;;5092307;28;20179;-57
2022/01/06 04:28:48;;;;;;;3.53;2.20;;;4.40;99.90;;;;;;5093363;28;20268;-58
2022/01/06 04:31:14;;;;;;;4.17;2.43;;;4.40;99.90;;;;;;5092815;28;20185;-57
2022/01/06 04:33:40;;;;;;;6.33;2.70;;;4.40;99.90;;;;;;5091682;28;20628;-60
2022/01/06 04:36:06;;;;;;;3.60;1.70;;;4.50;99.90;;;;;;5093237;28;20205;-59
2022/01/06 04:38:33;;;;;;;5.73;2.50;;;4.50;99.90;;;;;;5092869;28;20266;-58
2022/01/06 04:40:59;;;;;;;3.80;2.40;;;4.40;99.90;;;;;;5092989;28;20186;-58
2022/01/06 04:43:25;;;;;;;3.63;2.40;;;4.40;99.90;;;;;;5092389;28;20202;-57
2022/01/06 04:45:51;;;;;;;4.33;2.33;;;4.40;99.90;;;;;;5093251;28;20264;-58
2022/01/06 04:48:17;;;;;;;4.03;2.20;;;4.40;99.90;;;;;;5092715;28;20214;-58
2022/01/06 04:50:42;;;;;;;3.30;2.00;;;4.40;99.90;;;;;;5092694;28;20637;-57
2022/01/06 04:53:08;;;;;;;3.70;2.20;;;4.40;99.90;;;;;;5092672;28;20182;-58
2022/01/06 04:55:34;;;;;;;3.83;2.20;;;4.40;99.90;;;;;;5092331;28;20211;-58
2022/01/06 04:58:00;;;;;;;3.50;2.03;;;4.40;99.90;;;;;;5092832;28;20188;-58
2022/01/06 05:00:26;;;;;;;4.43;2.03;;;4.50;99.90;;;;;;5092422;28;20192;-60
2022/01/06 05:02:52;;;;;;;8.07;1.77;;;4.50;99.90;;;;;;5092741;28;20270;-59
2022/01/06 05:05:17;;;;;;;4.47;2.30;;;4.50;99.90;;;;;;5092614;28;20181;-58
2022/01/06 05:07:44;;;;;;;3.43;2.10;;;4.40;99.90;;;;;;5092320;28;20181;-52
2022/01/06 05:10:10;;;;;;;4.83;2.50;;;4.40;99.90;;;;;;5092586;28;20200;-59
2022/01/06 05:12:43;;;;;;;6.60;2.90;;;4.30;99.90;;;;;;5092167;28;20173;-52
2022/01/06 05:15:11;;;;;;;4.20;2.10;;;4.30;99.90;;;;;;5091481;28;20173;-51
2022/01/06 05:17:37;;;;;;;3.07;2.00;;;4.20;99.90;;;;;;5092220;28;20181;-55
2022/01/06 05:20:04;;;;;;;10.93;2.67;;;4.20;99.90;;;;;;5090903;28;20184;-54
2022/01/06 05:22:31;;;;;;;5.77;2.50;;;4.10;99.90;;;;;;5091812;28;20205;-54
2022/01/06 05:24:57;;;;;;;4.43;2.43;;;4.10;99.90;;;;;;5092260;28;20609;-52
2022/01/06 05:27:22;;;;;;;3.63;2.23;;;4.10;99.90;;;;;;5091765;28;20193;-51
2022/01/06 05:29:48;;;;;;;5.10;2.30;;;4.00;99.90;;;;;;5092229;28;20176;-53
2022/01/06 05:32:14;;;;;;;4.30;1.50;;;3.80;99.90;;;;;;5091440;28;20188;-52
2022/01/06 05:34:40;;;;;;;2.13;1.53;;;3.80;99.90;;;;;;5091722;28;20236;-52
2022/01/06 05:37:06;;;;;;;2.67;1.50;;;3.70;99.90;;;;;;5091945;28;20184;-51
2022/01/06 05:39:32;;;;;;;5.07;2.20;;;3.70;99.90;;;;;;5090313;28;20177;-50
2022/01/06 05:41:58;;;;;;;4.30;2.23;;;3.70;99.90;;;;;;5091266;28;20351;-53
2022/01/06 05:44:25;;;;;;;7.67;3.27;;;3.40;99.90;;;;;;5090623;28;20535;-55
2022/01/06 05:46:51;;;;;;;8.37;4.70;;;3.20;99.90;;;;;;5090274;28;20271;-54
2022/01/06 05:49:16;;;;;;;9.97;4.57;;;3.10;99.90;;;;;;5090437;28;20260;-52
2022/01/06 05:51:43;;;;;;;9.10;4.87;;;2.90;99.90;;;;;;5091383;28;20185;-52
2022/01/06 05:54:09;;;;;;;8.80;5.37;;;2.70;99.90;;;;;;5090088;28;20195;-56
2022/01/06 05:56:35;;;;;;;8.77;5.20;;;2.60;99.90;;;;;;5090941;28;20188;-52
2022/01/06 05:59:01;;;;;;;10.03;5.50;;;2.50;99.90;;;;;;5091068;28;20261;-51
2022/01/06 06:01:27;;;;;;;11.93;5.43;;;2.50;99.90;;;;;;5090985;28;20195;-56
2022/01/06 06:03:54;;;;;;;12.37;5.77;;;2.40;99.90;;;;;;5090888;28;20220;-53
2022/01/06 06:06:20;;;;;;;5.57;3.60;;;2.30;99.90;;;;;;5091177;28;20211;-55
2022/01/06 06:08:46;;;;;;;9.83;5.13;;;2.30;99.90;;;;;;5090217;28;20607;-61
2022/01/06 06:11:12;;;;;;;10.17;5.90;;;2.20;99.90;;;;;;5080863;28;20188;-62
2022/01/06 06:13:38;;;;;;;10.33;5.60;;;2.20;99.90;;;;;;5071271;28;20181;-60
2022/01/06 06:16:04;;;;;;;9.23;5.03;;;2.10;99.90;;;;;;5071175;28;20185;-60
2022/01/06 06:18:29;;;;;;;10.33;6.10;;;2.10;99.90;;;;;;5070834;28;20196;-58
2022/01/06 06:20:55;;;;;;;11.40;5.30;;;2.00;99.90;;;;;;5071064;28;20676;-55
2022/01/06 06:23:21;;;;;;;11.40;6.30;;;2.00;99.90;;;;;;5070661;28;20314;-56
2022/01/06 06:25:47;;;;;;;9.50;4.80;;;2.00;99.90;;;;;;5070774;28;20183;-54
2022/01/06 06:28:12;;;;;;;13.97;7.10;;;1.90;99.90;;;;;;5076109;28;20187;-61
2022/01/06 06:30:38;;;;;;;9.87;6.17;;;1.90;99.90;;;;;;5076654;28;20187;-60
2022/01/06 06:33:04;;;;;;;12.70;6.87;;;1.90;99.90;;;;;;5091306;28;20243;-58
2022/01/06 06:35:30;;;;;;;15.07;7.43;;;1.90;99.90;;;;;;5091012;28;20190;-64
2022/01/06 06:37:56;;;;;;;13.63;7.60;;;1.90;99.90;;;;;;5090504;28;20278;-63
2022/01/06 06:40:23;;;;;;;13.93;6.80;;;1.90;99.90;;;;;;5090416;28;20536;-63
2022/01/06 06:42:52;;;;;;;12.27;6.77;;;1.90;99.90;;;;;;5090502;28;20203;-64
2022/01/06 06:45:19;;;;;;;13.03;5.87;;;1.90;99.90;;;;;;5090514;28;20187;-61
2022/01/06 06:47:46;;;;;;;17.23;6.53;;;1.90;99.90;;;;;;5081640;28;20329;-58
2022/01/06 06:50:15;;;;;;;15.53;7.57;;;1.90;99.90;;;;;;5086405;28;20196;-57
2022/01/06 06:52:41;;;;;;;15.77;7.47;;;1.90;99.90;;;;;;5091078;28;20211;-60
2022/01/06 06:55:08;;;;;;;16.80;7.60;;;2.00;99.90;;;;;;5091855;28;20195;-64
2022/01/06 06:57:34;;;;;;;16.30;9.33;;;2.00;99.90;;;;;;5088147;28;20223;-56
2022/01/06 07:00:03;;;;;;;18.27;8.83;;;2.10;99.90;;;;;;5087925;28;20559;-59
2022/01/06 07:02:30;;;;;;;15.40;7.77;;;2.10;99.90;;;;;;5084110;28;20731;-57
2022/01/06 07:04:56;;;;;;;14.67;7.57;;;2.10;99.90;;;;;;5087962;28;20496;-61
2022/01/06 07:07:21;;;;;;;18.30;9.27;;;2.10;99.90;;;;;;5087333;28;20736;-61
2022/01/06 07:09:47;;;;;;;22.40;9.53;;;2.10;99.90;;;;;;5083736;28;20193;-60
2022/01/06 07:12:13;;;;;;;19.10;9.57;;;2.20;99.90;;;;;;5079272;28;20203;-62
2022/01/06 07:14:39;;;;;;;17.23;9.27;;;2.10;99.90;;;;;;5091914;28;20273;-62
2022/01/06 07:17:05;;;;;;;15.17;7.93;;;2.10;99.90;;;;;;5078737;28;20277;-62
2022/01/06 07:19:30;;;;;;;17.63;9.70;;;2.10;99.90;;;;;;5084084;28;20199;-59
2022/01/06 07:21:56;;;;;;;11.80;6.10;;;2.10;99.90;;;;;;5077037;28;20271;-63
2022/01/06 07:24:22;;;;;;;17.80;8.67;;;2.10;99.90;;;;;;5093132;28;20242;-54
2022/01/06 07:26:49;;;;;;;16.67;9.13;;;2.10;99.90;;;;;;5092912;28;20234;-61
2022/01/06 07:29:15;;;;;;;18.47;8.83;;;2.10;99.90;;;;;;5091745;28;20209;-64
2022/01/06 07:31:41;;;;;;;20.53;11.27;;;2.10;99.90;;;;;;5091360;28;20193;-57
2022/01/06 07:34:06;;;;;;;21.60;9.97;;;2.20;99.90;;;;;;5092832;28;20701;-61
2022/01/06 07:36:32;;;;;;;23.10;11.60;;;2.20;99.90;;;;;;5091218;28;20195;-65
2022/01/06 07:38:58;;;;;;;19.03;9.67;;;2.10;99.90;;;;;;5093458;28;20194;-54
2022/01/06 07:41:24;;;;;;;17.97;9.57;;;2.10;99.90;;;;;;5082198;28;20224;-58
2022/01/06 07:43:49;;;;;;;20.67;10.37;;;2.00;99.90;;;;;;5087526;28;20310;-66
2022/01/06 07:46:15;;;;;;;20.13;10.33;;;2.00;99.90;;;;;;5082780;28;20671;-63
2022/01/06 07:48:54;;;;;;;22.80;10.60;;;1.90;99.90;;;;;;5088639;28;20196;-66
2022/01/06 07:51:20;;;;;;;23.13;11.43;;;1.90;99.90;;;;;;5085441;28;20275;-63
2022/01/06 07:53:46;;;;;;;19.67;10.17;;;1.90;99.90;;;;;;5091863;28;20279;-61
2022/01/06 07:56:12;;;;;;;22.37;10.47;;;1.90;99.90;;;;;;5093535;28;20254;-64
2022/01/06 07:58:37;;;;;;;24.43;11.93;;;1.90;99.90;;;;;;5090867;28;20193;-65
2022/01/06 08:01:03;;;;;;;20.57;11.47;;;1.80;99.90;;;;;;5092239;28;20189;-63
2022/01/06 08:03:29;;;;;;;21.33;11.30;;;1.60;99.90;;;;;;5093161;28;20320;-62
2022/01/06 08:05:55;;;;;;;25.50;8.97;;;1.60;99.90;;;;;;5092083;28;20191;-61
2022/01/06 08:08:20;;;;;;;19.97;10.93;;;1.60;99.90;;;;;;5090365;28;20193;-62
2022/01/06 08:10:46;;;;;;;20.33;8.83;;;1.50;99.90;;;;;;5091353;28;20211;-63
2022/01/06 08:13:12;;;;;;;19.33;9.87;;;1.50;99.90;;;;;;5091733;28;20206;-61
2022/01/06 08:15:38;;;;;;;23.43;10.30;;;1.50;99.90;;;;;;5091746;28;20282;-65
2022/01/06 08:18:04;;;;;;;22.17;9.80;;;1.40;99.90;;;;;;5092176;28;20265;-64
2022/01/06 08:20:29;;;;;;;20.83;10.47;;;1.30;99.90;;;;;;5090162;28;20251;-64
2022/01/06 08:22:55;;;;;;;21.93;10.43;;;1.20;99.90;;;;;;5092865;28;20217;-65
2022/01/06 08:25:21;;;;;;;25.20;10.30;;;1.20;99.90;;;;;;5092166;28;20182;-60
2022/01/06 08:27:48;;;;;;;12.80;7.17;;;1.10;99.90;;;;;;5092135;28;20294;-61
2022/01/06 08:30:14;;;;;;;25.83;10.13;;;1.00;99.90;;;;;;5075856;28;20282;-59
2022/01/06 08:32:40;;;;;;;19.93;9.50;;;1.00;99.90;;;;;;5071643;28;20589;-65
2022/01/06 08:35:06;;;;;;;31.00;12.03;;;0.90;99.90;;;;;;5072848;28;20167;-65
2022/01/06 08:37:31;;;;;;;21.07;10.43;;;0.90;99.90;;;;;;5072082;28;20184;-62
2022/01/06 08:39:57;;;;;;;25.47;11.10;;;0.90;99.90;;;;;;5072571;28;20675;-62
2022/01/06 08:42:23;;;;;;;18.53;9.40;;;0.80;99.90;;;;;;5071573;28;20679;-65
2022/01/06 08:44:50;;;;;;;22.83;10.93;;;0.80;99.90;;;;;;5090283;28;20194;-63
2022/01/06 08:47:15;;;;;;;25.90;11.87;;;0.70;99.90;;;;;;5092056;28;20175;-68
2022/01/06 08:49:43;;;;;;;23.07;11.57;;;0.70;99.90;;;;;;5090768;28;20277;-65
2022/01/06 08:52:09;;;;;;;28.27;11.67;;;0.70;99.90;;;;;;5092475;28;20177;-63
2022/01/06 08:54:35;;;;;;;20.73;10.40;;;0.80;99.90;;;;;;5091934;28;21035;-64
2022/01/06 08:57:01;;;;;;;24.63;11.60;;;0.70;99.90;;;;;;5092236;28;20199;-61
2022/01/06 08:59:27;;;;;;;18.07;8.77;;;0.80;99.90;;;;;;5080526;28;20191;-61
2022/01/06 09:01:53;;;;;;;1.13;0.93;;;0.80;99.90;;;;;;5071735;28;20185;-61
2022/01/06 09:04:20;;;;;;;0.83;0.77;;;0.90;99.90;;;;;;5069651;28;20178;-61
2022/01/06 09:06:48;;;;;;;0.10;0.10;;;0.90;99.90;;;;;;5069918;28;20176;-62
2022/01/06 09:09:14;;;;;;;1.10;1.10;;;0.90;99.90;;;;;;5070322;28;20183;-61
2022/01/06 09:11:40;;;;;;;1.50;1.40;;;1.00;99.90;;;;;;5071493;28;20258;-59
2022/01/06 09:14:06;;;;;;;1.23;1.13;;;1.00;99.90;;;;;;5070366;28;20229;-62
2022/01/06 09:16:32;;;;;;;1.43;0.90;;;1.10;99.90;;;;;;5069600;28;20177;-60
2022/01/06 09:18:57;;;;;;;0.73;0.63;;;1.10;99.90;;;;;;5070948;28;20182;-59
2022/01/06 09:21:24;;;;;;;0.30;0.30;;;1.00;99.90;;;;;;5069545;28;20261;-61
2022/01/06 09:23:54;;;;;;;0.20;0.20;;;1.00;99.90;;;;;;5069341;28;20217;-62
2022/01/06 09:26:20;;;;;;;1.47;0.60;;;1.00;99.90;;;;;;5068476;28;20236;-61
2022/01/06 09:28:46;;;;;;;0.43;0.43;;;0.90;99.90;;;;;;5069276;28;20181;-61
2022/01/06 09:31:12;;;;;;;1.90;1.30;;;0.90;99.90;;;;;;5067599;28;20185;-62
2022/01/06 09:33:38;;;;;;;0.17;0.13;;;0.80;99.90;;;;;;5067533;28;20230;-61
2022/01/06 09:36:04;;;;;;;0.30;0.30;;;0.90;99.90;;;;;;5069032;28;20285;-60
2022/01/06 09:38:30;;;;;;;0.30;0.30;;;0.80;99.90;;;;;;5071165;28;20273;-60
2022/01/06 09:40:56;;;;;;;0.10;0.10;;;0.80;99.90;;;;;;5070937;28;20203;-62
2022/01/06 09:43:26;;;;;;;0.33;0.33;;;0.90;99.90;;;;;;5078953;28;20258;-61
2022/01/06 09:45:52;;;;;;;1.07;0.93;;;0.90;99.90;;;;;;5091654;28;20235;-63
2022/01/06 09:48:21;;;;;;;0.40;0.40;;;1.00;99.90;;;;;;5091025;28;20600;-60
2022/01/06 09:50:47;;;;;;;0.50;0.50;;;1.10;99.90;;;;;;5091354;28;20281;-62
2022/01/06 09:53:13;;;;;;;0.50;0.50;;;1.10;99.90;;;;;;5091077;28;20305;-60
2022/01/06 09:55:40;;;;;;;1.83;1.13;;;1.10;99.90;;;;;;5089257;28;20179;-60
2022/01/06 09:58:06;;;;;;;0.23;0.23;;;1.00;99.90;;;;;;5087998;28;20588;-63
2022/01/06 10:00:34;;;;;;;3.10;1.43;;;1.00;99.90;;;;;;5089280;28;20187;-62
2022/01/06 10:03:02;;;;;;;0.40;0.40;;;1.00;99.90;;;;;;5088844;28;20304;-63
2022/01/06 10:05:44;;;;;;;0.60;0.60;;;1.00;99.90;;;;;;5088877;28;20244;-62
2022/01/06 10:08:12;;;;;;;1.03;1.03;;;1.00;99.90;;;;;;5089970;28;20178;-61
2022/01/06 10:10:40;;;;;;;0.80;0.80;;;1.00;99.90;;;;;;5090168;28;20286;-61
2022/01/06 10:13:07;;;;;;;2.13;2.03;;;1.10;99.90;;;;;;5091399;28;20182;-61
2022/01/06 10:15:35;;;;;;;1.47;1.37;;;1.10;99.90;;;;;;5090531;28;20254;-63
2022/01/06 10:18:14;;;;;;;2.57;1.83;;;1.10;99.90;;;;;;5090803;28;20187;-61
2022/01/06 10:20:40;;;;;;;0.83;0.80;;;1.10;99.90;;;;;;5089905;28;20172;-61
2022/01/06 10:23:12;;;;;;;0.30;0.30;;;1.10;99.90;;;;;;5089276;28;20631;-61
2022/01/06 10:25:44;;;;;;;3.03;2.03;;;1.10;99.90;;;;;;5093847;28;20638;-61
2022/01/06 10:28:28;;;;;;;1.17;1.13;;;1.00;99.90;;;;;;5095644;28;20176;-59
2022/01/06 10:30:53;;;;;;;1.27;1.17;;;1.10;99.90;;;;;;5075250;28;20598;-61
2022/01/06 10:33:23;;;;;;;3.97;1.20;;;1.20;99.90;;;;;;5074140;28;20304;-66
2022/01/06 10:35:49;;;;;;;0.80;0.80;;;1.30;99.90;;;;;;5074193;28;20184;-63
2022/01/06 10:38:26;;;;;;;1.20;0.93;;;1.20;99.90;;;;;;5075236;28;20208;-61
2022/01/06 10:40:53;;;;;;;0.53;0.53;;;1.20;99.90;;;;;;5074741;28;20179;-62
2022/01/06 10:43:32;;;;;;;0.50;0.50;;;1.20;99.90;;;;;;5080348;28;20264;-66
2022/01/06 10:46:02;;;;;;;1.73;0.80;;;1.20;99.90;;;;;;5094664;28;20169;-63
2022/01/06 10:48:28;;;;;;;0.20;0.20;;;1.20;99.90;;;;;;5094784;28;20177;-62
2022/01/06 10:50:59;;;;;;;0.93;0.83;;;1.30;99.90;;;;;;5094790;28;20182;-61
2022/01/06 10:53:25;;;;;;;0.43;0.43;;;1.50;99.90;;;;;;5092970;28;20253;-61
2022/01/06 10:55:51;;;;;;;1.80;1.07;;;1.50;99.90;;;;;;5094157;28;20183;-61
2022/01/06 10:58:25;;;;;;;0.50;0.50;;;1.50;99.90;;;;;;5093947;28;20179;-60
2022/01/06 11:01:02;;;;;;;0.37;0.37;;;1.40;99.90;;;;;;5094016;28;20170;-62
2022/01/06 11:03:29;;;;;;;0.37;0.37;;;1.50;99.90;;;;;;5093516;28;20252;-61
2022/01/06 11:05:57;;;;;;;2.67;1.50;;;1.50;99.90;;;;;;5093990;28;20198;-63
2022/01/06 11:08:27;;;;;;;0.93;0.83;;;1.60;99.90;;;;;;5093908;28;20196;-62
2022/01/06 11:13:38;;;;;;;1.47;1.37;;;1.60;99.90;;;;;;5093576;28;20240;-62
2022/01/06 11:16:05;;;;;;;1.03;1.03;;;1.50;99.90;;;;;;5094583;28;20187;-62
2022/01/06 11:18:32;;;;;;;0.53;0.53;;;1.50;99.90;;;;;;5093447;28;20179;-62
2022/01/06 11:21:08;;;;;;;1.10;1.00;;;1.40;99.90;;;;;;5093779;28;20202;-62
2022/01/06 11:23:33;;;;;;;1.10;1.07;;;1.40;99.90;;;;;;5093743;28;20199;-63
2022/01/06 11:26:11;;;;;;;0.43;0.23;;;1.40;99.90;;;;;;5093887;28;20197;-61
2022/01/06 11:28:39;;;;;;;0.37;0.27;;;1.40;99.90;;;;;;5093483;28;20187;-63
2022/01/06 11:31:18;;;;;;;0.50;0.50;;;1.30;99.90;;;;;;5093459;28;20203;-63
2022/01/06 11:33:45;;;;;;;0.73;0.73;;;1.40;99.90;;;;;;5092374;28;20227;-62
2022/01/06 11:36:35;;;;;;;2.77;2.00;;;1.50;99.90;;;;;;5091945;28;20227;-62
2022/01/06 11:39:06;;;;;;;1.60;1.50;;;1.50;99.90;;;;;;5092593;28;20193;-63
2022/01/06 11:41:51;;;;;;;14.33;3.80;;;1.70;99.90;;;;;;5093244;28;20176;-63
2022/01/06 11:44:32;;;;;;;0.73;0.73;;;1.80;99.90;;;;;;5093251;28;20293;-61
2022/01/06 11:47:00;;;;;;;2.57;1.73;;;1.70;99.90;;;;;;5093592;28;20162;-63
2022/01/06 11:49:39;;;;;;;0.50;0.50;;;1.70;99.90;;;;;;5093423;28;20171;-63
2022/01/06 11:52:10;;;;;;;0.40;0.40;;;1.60;99.90;;;;;;5093588;28;20179;-62
2022/01/06 11:54:53;;;;;;;0.30;0.30;;;1.50;99.90;;;;;;5093305;28;20167;-63
2022/01/06 11:57:31;;;;;;;0.53;0.53;;;1.50;99.90;;;;;;5092162;28;20179;-63
2022/01/06 11:59:59;;;;;;;2.13;1.03;;;1.50;99.90;;;;;;5093542;28;20621;-63
2022/01/06 12:02:31;;;;;;;1.40;1.30;;;1.60;99.90;;;;;;5092863;28;20197;-64
2022/01/06 12:04:59;;;;;;;1.03;1.00;;;1.60;99.90;;;;;;5092485;28;20187;-65
2022/01/06 12:07:25;;;;;;;2.07;1.87;;;1.50;99.90;;;;;;5092703;28;20165;-65
2022/01/06 12:10:06;;;;;;;0.93;0.57;;;1.50;99.90;;;;;;5093012;28;20186;-61
2022/01/06 12:12:34;;;;;;;0.67;0.67;;;1.50;99.90;;;;;;5092796;28;20199;-64
2022/01/06 12:15:07;;;;;;;0.17;0.17;;;1.50;99.90;;;;;;5092998;28;20188;-63
2022/01/06 12:17:33;;;;;;;0.40;0.40;;;1.50;99.90;;;;;;5092667;28;20172;-63
2022/01/06 12:19:59;;;;;;;0.13;0.13;;;1.60;99.90;;;;;;5093418;28;20194;-62
2022/01/06 12:22:26;;;;;;;2.00;1.80;;;1.60;99.90;;;;;;5090980;28;20246;-67
2022/01/06 12:25:06;;;;;;;3.30;2.17;;;1.60;99.90;;;;;;5091648;28;20238;-63
2022/01/06 12:27:32;;;;;;;2.97;1.60;;;1.70;99.90;;;;;;5093056;28;20159;-63
2022/01/06 12:30:03;;;;;;;1.13;1.07;;;1.60;99.90;;;;;;5092844;28;20672;-64
2022/01/06 12:32:29;;;;;;;0.40;0.40;;;1.50;99.90;;;;;;5091642;28;20270;-55
2022/01/06 12:34:56;;;;;;;2.63;2.17;;;1.50;99.90;;;;;;5092720;28;20671;-62
2022/01/06 12:37:26;;;;;;;1.47;1.07;;;1.50;99.90;;;;;;5092691;28;20237;-62
2022/01/06 12:39:52;;;;;;;1.43;1.27;;;1.50;99.90;;;;;;5092591;28;20277;-62
2022/01/06 12:42:18;;;;;;;1.23;0.57;;;1.40;99.90;;;;;;5090723;28;20844;-63
2022/01/06 12:44:44;;;;;;;0.57;0.57;;;1.40;99.90;;;;;;5092279;28;20191;-64
2022/01/06 12:47:10;;;;;;;4.83;2.00;;;1.40;99.90;;;;;;5091752;28;20655;-62
2022/01/06 12:49:37;;;;;;;0.50;0.50;;;1.40;99.90;;;;;;5092148;28;20175;-61
2022/01/06 12:52:03;;;;;;;0.10;0.10;;;1.40;99.90;;;;;;5074286;28;20266;-61
2022/01/06 12:54:34;;;;;;;1.20;1.10;;;1.40;99.90;;;;;;5074545;28;20279;-62
2022/01/06 12:57:06;;;;;;;0.90;0.90;;;1.40;99.90;;;;;;5070952;28;20638;-63
2022/01/06 12:59:36;;;;;;;0.63;0.63;;;1.50;99.90;;;;;;5070585;28;20210;-62
2022/01/06 13:02:07;;;;;;;8.60;2.53;;;1.50;99.90;;;;;;5071369;28;20229;-63
2022/01/06 13:04:38;;;;;;;2.60;1.17;;;1.50;99.90;;;;;;5071070;28;20548;-61
2022/01/06 13:07:06;;;;;;;0.97;0.53;;;1.50;99.90;;;;;;5071185;28;20256;-65